Terminal Aerodrome Forecast
Issued by NWS

Home | Current Version | Previous Version | Text Only | Print | Product List | Glossary On
Versions: 1 2 3 4 5 6 7 8 9 10 11 12 13
000
FTUS46 KLOX 210200 AAA
TAFWJF
TAF AMD
KWJF 210209Z 2102/2124 25010KT P6SM SKC
     FM211100 VRB03KT P6SM SKC
     FM212100 23012G20KT P6SM SKC=

USA.gov is the U.S. government's official web portal to all federal, state and local government web resources and services.